Time;durP1;ratioP1;P1;durP2;ratioP2;P2;SDS_P1;SDS_P2;PMS_P1;PMS_P2;Temp;Humidity;BMP_temperature;BMP_pressure;BME280_temperature;BME280_humidity;BME280_pressure;Samples;Min_cycle;Max_cycle;Signal;HPM_P1;HPM_P2
2022/09/28 00:01:29;;;;;;;1.50;1.20;;;;;;;5.91;100.00;97972.73;100825;1338;23128;-33
2022/09/28 00:03:57;;;;;;;3.80;2.60;;;;;;;5.89;100.00;97973.92;100807;1336;22747;-34
2022/09/28 00:06:23;;;;;;;4.10;2.40;;;;;;;5.90;100.00;97977.12;100792;1318;22520;-37
2022/09/28 00:08:49;;;;;;;2.50;2.20;;;;;;;5.99;100.00;97973.48;100730;1334;24354;-33
2022/09/28 00:11:14;;;;;;;5.80;4.10;;;;;;;6.08;100.00;97971.89;100812;1339;24462;-33
2022/09/28 00:13:41;;;;;;;5.10;3.50;;;;;;;6.19;100.00;97968.74;100824;1339;22888;-34
2022/09/28 00:16:10;;;;;;;4.50;2.80;;;;;;;6.29;100.00;97970.08;100896;1330;22511;-33
2022/09/28 00:18:35;;;;;;;5.50;2.80;;;;;;;6.36;100.00;97964.08;100851;1338;24264;-36
2022/09/28 00:21:05;;;;;;;2.90;2.60;;;;;;;6.40;100.00;97959.87;100705;1331;23176;-36
2022/09/28 00:23:31;;;;;;;5.10;3.20;;;;;;;6.44;100.00;97947.23;100771;1337;22541;-35
2022/09/28 00:26:01;;;;;;;3.90;2.90;;;;;;;6.44;100.00;97946.27;100767;1330;22736;-36
2022/09/28 00:28:27;;;;;;;4.70;2.10;;;;;;;6.45;100.00;97944.79;100792;1338;22839;-33
2022/09/28 00:30:56;;;;;;;4.50;2.40;;;;;;;6.45;100.00;97940.55;100765;1337;23250;-36
2022/09/28 00:33:22;;;;;;;4.60;2.80;;;;;;;6.45;100.00;97936.89;100800;1332;22880;-33
2022/09/28 00:35:55;;;;;;;3.80;2.80;;;;;;;6.50;100.00;97928.84;100696;1338;22868;-33
2022/09/28 00:38:21;;;;;;;3.30;2.30;;;;;;;6.53;100.00;97925.67;100796;1338;24491;-37
2022/09/28 00:40:47;;;;;;;3.00;2.50;;;;;;;6.56;100.00;97924.03;100880;1331;22896;-36
2022/09/28 00:43:17;;;;;;;0.90;0.80;;;;;;;6.61;100.00;97923.45;100891;1338;24909;-34
2022/09/28 00:45:43;;;;;;;9.80;2.90;;;;;;;6.65;100.00;97920.36;100834;1338;23754;-35
2022/09/28 00:48:09;;;;;;;2.90;1.80;;;;;;;6.65;100.00;97908.23;100768;1338;22508;-37
2022/09/28 00:50:35;;;;;;;2.90;2.20;;;;;;;6.70;100.00;97904.57;100748;1331;22776;-34
2022/09/28 00:53:06;;;;;;;3.10;2.40;;;;;;;6.69;100.00;97902.23;100798;1331;22445;-34
2022/09/28 00:55:44;;;;;;;5.90;2.00;;;;;;;6.70;100.00;97899.27;100746;1331;25308;-34
2022/09/28 00:58:13;;;;;;;4.30;2.80;;;;;;;6.65;100.00;97900.09;100801;1339;23961;-37
2022/09/28 01:00:39;;;;;;;4.10;3.10;;;;;;;6.64;100.00;97901.36;100806;1337;24257;-37
2022/09/28 01:03:07;;;;;;;3.50;2.90;;;;;;;6.66;100.00;97900.21;100899;1332;22490;-37
2022/09/28 01:05:33;;;;;;;3.00;2.40;;;;;;;6.67;100.00;97902.10;100839;1331;23201;-33
2022/09/28 01:07:59;;;;;;;1.90;1.70;;;;;;;6.69;100.00;97904.85;100834;1332;22755;-34
2022/09/28 01:10:26;;;;;;;3.50;3.20;;;;;;;6.68;100.00;97908.58;100793;1339;22884;-34
2022/09/28 01:12:54;;;;;;;3.50;2.70;;;;;;;6.68;100.00;97904.95;100792;1338;25355;-37
2022/09/28 01:15:20;;;;;;;2.40;2.00;;;;;;;6.73;100.00;97904.02;100793;1338;24297;-37
2022/09/28 01:17:54;;;;;;;3.00;2.30;;;;;;;6.74;100.00;97906.15;100866;1331;22758;-34
2022/09/28 01:20:23;;;;;;;2.10;1.70;;;;;;;6.72;100.00;97901.27;100835;1338;25894;-34
2022/09/28 01:22:59;;;;;;;4.70;2.90;;;;;;;6.71;100.00;97896.59;100770;1339;22533;-37
2022/09/28 01:25:34;;;;;;;4.20;2.90;;;;;;;6.67;100.00;97895.86;100780;1339;23811;-33
2022/09/28 01:28:03;;;;;;;3.70;2.50;;;;;;;6.69;100.00;97895.65;100900;1339;23811;-34
2022/09/28 01:30:29;;;;;;;3.50;3.20;;;;;;;6.73;100.00;97888.75;100900;1331;22922;-37
2022/09/28 01:32:56;;;;;;;3.60;3.00;;;;;;;6.69;100.00;97892.58;100784;1337;23260;-35
2022/09/28 01:35:23;;;;;;;4.80;3.30;;;;;;;6.72;100.00;97887.35;100795;1338;24356;-32
2022/09/28 01:37:54;;;;;;;2.80;2.20;;;;;;;6.76;100.00;97890.23;100709;1331;24298;-35
2022/09/28 01:40:20;;;;;;;;;;;;;;;6.73;100.00;97892.20;100853;1338;23093;-34
2022/09/28 01:42:48;;;;;;;5.30;3.20;;;;;;;6.73;100.00;97891.75;100794;1337;24389;-33
2022/09/28 01:45:19;;;;;;;3.80;3.50;;;;;;;6.81;100.00;97893.75;100783;1339;24296;-34
2022/09/28 01:47:45;;;;;;;4.50;3.70;;;;;;;6.81;100.00;97891.20;100791;1331;22446;-39
2022/09/28 01:50:13;;;;;;;2.90;2.20;;;;;;;6.90;100.00;97888.66;100717;1337;23094;-34
2022/09/28 01:52:43;;;;;;;3.40;3.10;;;;;;;6.82;100.00;97885.08;100791;1323;22735;-34
2022/09/28 01:55:14;;;;;;;3.70;2.40;;;;;;;6.76;100.00;97882.42;100876;1332;23283;-38
2022/09/28 01:57:43;;;;;;;3.40;2.50;;;;;;;6.76;100.00;97883.48;100730;1337;23090;-34
2022/09/28 02:00:11;;;;;;;2.60;2.30;;;;;;;6.69;100.00;97881.38;100881;1338;25546;-36
2022/09/28 02:02:39;;;;;;;2.70;2.30;;;;;;;6.70;100.00;97882.11;100788;1337;23357;-36
2022/09/28 02:05:07;;;;;;;2.30;2.10;;;;;;;6.76;100.00;97880.13;100772;1337;24287;-34
2022/09/28 02:07:39;;;;;;;6.40;2.70;;;;;;;6.73;100.00;97871.66;100782;1332;24558;-33
2022/09/28 02:10:09;;;;;;;3.10;2.70;;;;;;;6.77;100.00;97872.27;100751;1332;22735;-34
2022/09/28 02:12:37;;;;;;;2.90;2.60;;;;;;;6.75;100.00;97865.63;100755;1339;24395;-33
2022/09/28 02:15:11;;;;;;;3.30;3.00;;;;;;;6.79;100.00;97859.92;100809;1331;23109;-36
2022/09/28 02:17:37;;;;;;;;;;;;;;;6.77;100.00;97857.70;100801;1337;24273;-33
2022/09/28 02:20:03;;;;;;;3.40;2.70;;;;;;;6.74;100.00;97856.64;100856;1339;23234;-39
2022/09/28 02:22:33;;;;;;;4.50;3.50;;;;;;;6.78;100.00;97860.45;100814;1337;22893;-33
2022/09/28 02:25:06;;;;;;;6.30;4.30;;;;;;;6.79;100.00;97863.41;100753;1339;24449;-32
2022/09/28 02:27:37;;;;;;;6.10;2.70;;;;;;;6.86;100.00;97864.00;100844;1331;25380;-35
2022/09/28 02:30:04;;;;;;;4.00;3.40;;;;;;;6.80;100.00;97863.08;100779;1338;22885;-33
2022/09/28 02:32:30;;;;;;;3.70;3.10;;;;;;;6.81;100.00;97865.70;100738;1338;22581;-33
2022/09/28 02:34:55;;;;;;;3.00;2.60;;;;;;;6.80;100.00;97864.80;100738;1337;23000;-35
2022/09/28 02:37:21;;;;;;;3.70;2.20;;;;;;;6.74;100.00;97871.79;100749;1329;24494;-35
2022/09/28 02:39:46;;;;;;;4.80;4.30;;;;;;;6.79;100.00;97873.30;100742;1337;22754;-33
2022/09/28 02:42:19;;;;;;;5.50;3.80;;;;;;;6.85;100.00;97869.66;100730;1324;22758;-33
2022/09/28 02:44:48;;;;;;;2.50;1.60;;;;;;;6.85;100.00;97863.55;100849;1339;22514;-33
2022/09/28 02:47:21;;;;;;;4.30;3.80;;;;;;;6.89;100.00;97857.55;100785;1336;24292;-34
2022/09/28 02:49:54;;;;;;;5.90;3.30;;;;;;;6.82;100.00;97854.77;100822;1339;25762;-34
2022/09/28 02:52:31;;;;;;;4.40;2.70;;;;;;;6.86;100.00;97852.91;100823;1332;25723;-37
2022/09/28 02:55:05;;;;;;;2.90;2.30;;;;;;;6.87;100.00;97851.06;100818;1339;24184;-37
2022/09/28 02:57:36;;;;;;;6.40;4.40;;;;;;;6.96;100.00;97854.92;100764;1339;22553;-37
2022/09/28 03:00:09;;;;;;;28.10;8.50;;;;;;;6.99;100.00;97847.73;100747;1335;23227;-37
2022/09/28 03:02:41;;;;;;;5.10;3.90;;;;;;;6.95;100.00;97846.73;100861;1339;22583;-34
2022/09/28 03:05:12;;;;;;;7.10;6.40;;;;;;;6.94;100.00;97845.66;100789;1338;22506;-37
2022/09/28 03:07:44;;;;;;;4.50;4.00;;;;;;;6.97;100.00;97849.45;100782;1324;22505;-33
2022/09/28 03:10:24;;;;;;;4.40;3.20;;;;;;;6.93;100.00;97848.20;100888;1339;24202;-33
2022/09/28 03:12:49;;;;;;;6.40;5.20;;;;;;;6.91;100.00;97849.74;100797;1337;22781;-38
2022/09/28 03:15:18;;;;;;;3.50;3.30;;;;;;;6.94;100.00;97851.80;100776;1332;24373;-34
2022/09/28 03:17:44;;;;;;;3.60;2.90;;;;;;;7.02;100.00;97847.52;100808;1337;24491;-36
2022/09/28 03:20:10;;;;;;;3.70;3.20;;;;;;;7.06;100.00;97841.77;100856;1339;22868;-37
2022/09/28 03:22:37;;;;;;;3.90;3.40;;;;;;;7.01;100.00;97841.40;100817;1331;24373;-34
2022/09/28 03:25:04;;;;;;;2.60;2.30;;;;;;;7.03;100.00;97839.23;100770;1337;22868;-34
2022/09/28 03:27:30;;;;;;;3.50;3.20;;;;;;;7.05;100.00;97837.85;100806;1337;24379;-37
2022/09/28 03:29:55;;;;;;;29.40;8.60;;;;;;;7.04;100.00;97835.23;100726;1337;24379;-34
2022/09/28 03:32:21;;;;;;;7.30;5.10;;;;;;;7.02;100.00;97836.46;100758;1331;24394;-34
2022/09/28 03:34:46;;;;;;;4.00;3.50;;;;;;;7.02;100.00;97839.03;100780;1323;24302;-34
2022/09/28 03:37:12;;;;;;;5.80;3.90;;;;;;;6.99;100.00;97840.98;100808;1334;22505;-33
2022/09/28 03:39:38;;;;;;;7.40;4.30;;;;;;;6.99;100.00;97843.30;100871;1328;23353;-40
2022/09/28 03:42:03;;;;;;;6.50;4.50;;;;;;;7.09;100.00;97840.55;100784;1338;24481;-32
2022/09/28 03:44:29;;;;;;;4.80;4.10;;;;;;;7.10;100.00;97836.80;100720;1329;23092;-32
2022/09/28 03:46:54;;;;;;;8.70;3.50;;;;;;;7.06;100.00;97824.71;100796;1331;24356;-35
2022/09/28 03:49:20;;;;;;;5.60;4.50;;;;;;;7.02;100.00;97822.63;100749;1338;22921;-36
2022/09/28 03:51:45;;;;;;;15.60;7.00;;;;;;;7.06;100.00;97827.05;100714;1331;24488;-33
2022/09/28 03:54:11;;;;;;;6.80;4.80;;;;;;;7.02;100.00;97824.59;100745;1337;22508;-35
2022/09/28 03:56:37;;;;;;;13.80;6.70;;;;;;;6.97;100.00;97819.24;100738;1337;24338;-32
2022/09/28 03:59:03;;;;;;;7.90;5.90;;;;;;;6.89;100.00;97825.44;100771;1331;22897;-33
2022/09/28 04:01:30;;;;;;;3.80;2.70;;;;;;;6.93;100.00;97830.09;100814;1331;22757;-35
2022/09/28 04:03:56;;;;;;;9.90;4.20;;;;;;;6.86;100.00;97827.01;100856;1337;22744;-32
2022/09/28 04:06:22;;;;;;;7.80;4.30;;;;;;;6.93;100.00;97830.30;100748;1338;24555;-38
2022/09/28 04:08:48;;;;;;;3.80;3.50;;;;;;;6.98;100.00;97829.42;100835;1330;24376;-37
2022/09/28 04:11:13;;;;;;;25.20;3.80;;;;;;;6.91;100.00;97823.25;100759;1337;24366;-37
2022/09/28 04:13:39;;;;;;;4.40;3.70;;;;;;;6.97;100.00;97827.33;100761;1338;22567;-34
2022/09/28 04:16:05;;;;;;;4.80;3.80;;;;;;;6.92;100.00;97823.25;100748;1330;22777;-33
2022/09/28 04:18:31;;;;;;;4.00;3.10;;;;;;;6.95;100.00;97826.94;100827;1331;23208;-36
2022/09/28 04:21:02;;;;;;;3.20;2.90;;;;;;;6.97;100.00;97822.61;100878;1322;23069;-37
2022/09/28 04:23:28;;;;;;;4.40;3.20;;;;;;;6.93;100.00;97819.96;100809;1322;23219;-31
2022/09/28 04:25:54;;;;;;;4.50;3.90;;;;;;;6.86;100.00;97820.41;100798;1331;22508;-35
2022/09/28 04:30:48;;;;;;;3.00;2.40;;;;;;;6.68;100.00;97828.21;100801;1335;24507;-32
2022/09/28 04:33:14;;;;;;;8.70;4.50;;;;;;;6.67;100.00;97835.48;100721;1338;24526;-36
2022/09/28 04:35:39;;;;;;;5.50;3.20;;;;;;;6.64;100.00;97838.46;100806;1339;24297;-36
2022/09/28 04:38:05;;;;;;;3.30;2.90;;;;;;;6.60;100.00;97837.89;100820;1330;22757;-33
2022/09/28 04:40:31;;;;;;;4.00;2.70;;;;;;;6.60;100.00;97843.92;100825;1338;22741;-37
2022/09/28 04:42:56;;;;;;;4.90;4.40;;;;;;;6.64;100.00;97847.77;100702;1331;24330;-37
2022/09/28 04:45:24;;;;;;;4.00;3.10;;;;;;;6.76;100.00;97852.33;100781;1331;24284;-37
2022/09/28 04:47:50;;;;;;;3.90;3.50;;;;;;;6.77;100.00;97846.54;100823;1331;24358;-37
2022/09/28 04:50:16;;;;;;;4.80;4.00;;;;;;;6.67;100.00;97846.20;100816;1331;22745;-32
2022/09/28 04:52:41;;;;;;;3.30;3.00;;;;;;;6.68;100.00;97850.39;100761;1331;23103;-33
2022/09/28 04:55:10;;;;;;;7.30;4.20;;;;;;;6.71;100.00;97855.00;100750;1334;23062;-33
2022/09/28 04:57:35;;;;;;;3.50;2.90;;;;;;;6.80;100.00;97854.65;100847;1331;24484;-37
2022/09/28 05:00:01;;;;;;;6.50;3.80;;;;;;;6.78;100.00;97852.41;100796;1331;23221;-37
2022/09/28 05:02:28;;;;;;;4.00;3.20;;;;;;;6.77;100.00;97845.21;100785;1321;25669;-37
2022/09/28 05:04:55;;;;;;;4.30;3.80;;;;;;;6.72;100.00;97845.78;100818;1331;23058;-33
2022/09/28 05:07:21;;;;;;;5.70;3.80;;;;;;;6.69;100.00;97845.88;100778;1338;22755;-37
2022/09/28 05:09:46;;;;;;;3.90;3.20;;;;;;;6.71;100.00;97850.58;100768;1337;22741;-34
2022/09/28 05:12:12;;;;;;;3.50;3.20;;;;;;;6.79;100.00;97851.59;100842;1330;24931;-38
2022/09/28 05:14:37;;;;;;;3.70;3.00;;;;;;;6.75;100.00;97854.05;100800;1334;23090;-33
2022/09/28 05:17:03;;;;;;;3.80;3.50;;;;;;;6.77;100.00;97849.37;100785;1338;24353;-36
2022/09/28 05:19:29;;;;;;;3.60;3.10;;;;;;;6.65;100.00;97846.38;100772;1334;22516;-36
2022/09/28 05:21:56;;;;;;;4.40;2.80;;;;;;;6.56;100.00;97851.55;100738;1338;22897;-35
2022/09/28 05:24:22;;;;;;;4.60;4.20;;;;;;;6.53;100.00;97859.48;100782;1337;24276;-33
2022/09/28 05:26:48;;;;;;;3.80;3.00;;;;;;;6.54;100.00;97865.52;100796;1331;22616;-33
2022/09/28 05:29:13;;;;;;;10.60;5.80;;;;;;;6.57;100.00;97866.33;100737;1337;22858;-36
2022/09/28 05:31:39;;;;;;;11.80;9.20;;;;;;;6.62;100.00;97873.64;100783;1339;23222;-36
2022/09/28 05:34:05;;;;;;;22.70;9.40;;;;;;;6.63;100.00;97878.23;100730;1337;22741;-36
2022/09/28 05:36:31;;;;;;;6.80;5.50;;;;;;;6.63;100.00;97881.05;100804;1331;23215;-38
2022/09/28 05:38:57;;;;;;;5.60;5.00;;;;;;;6.64;100.00;97885.36;100875;1331;22546;-38
2022/09/28 05:41:23;;;;;;;5.40;4.90;;;;;;;6.65;100.00;97888.85;100821;1337;22742;-37
2022/09/28 05:43:50;;;;;;;3.40;3.10;;;;;;;6.65;100.00;97889.52;100807;1334;24350;-36
2022/09/28 05:46:16;;;;;;;13.40;5.90;;;;;;;6.72;100.00;97889.16;100871;1331;22710;-33
2022/09/28 05:48:42;;;;;;;8.60;4.20;;;;;;;6.72;100.00;97892.77;100791;1339;23100;-35
2022/09/28 05:51:09;;;;;;;5.30;4.70;;;;;;;6.76;100.00;97891.98;100802;1334;22554;-38
2022/09/28 05:53:35;;;;;;;1.10;1.00;;;;;;;6.82;100.00;97897.10;100794;1338;23090;-34
2022/09/28 05:56:00;;;;;;;8.00;6.40;;;;;;;6.86;100.00;97899.06;100762;1332;22882;-34
2022/09/28 05:58:27;;;;;;;7.10;5.60;;;;;;;6.91;100.00;97900.33;100701;1339;23210;-37
2022/09/28 06:00:54;;;;;;;5.10;4.70;;;;;;;6.98;100.00;97905.05;100781;1338;24376;-34
2022/09/28 06:03:21;;;;;;;7.60;5.80;;;;;;;7.02;100.00;97902.05;100778;1338;22757;-37
2022/09/28 06:05:46;;;;;;;6.40;5.80;;;;;;;7.07;100.00;97903.27;100816;1339;22817;-34
2022/09/28 06:08:12;;;;;;;5.10;4.30;;;;;;;7.11;100.00;97902.52;100809;1337;22561;-34
2022/09/28 06:10:37;;;;;;;;;;;;;;;7.18;100.00;97898.55;100763;1339;24503;-33
2022/09/28 06:13:03;;;;;;;8.20;5.40;;;;;;;7.32;100.00;97898.61;100699;1339;23214;-36
2022/09/28 06:15:30;;;;;;;5.00;3.40;;;;;;;7.35;100.00;97891.15;100750;1338;22883;-33
2022/09/28 06:17:57;;;;;;;5.00;4.40;;;;;;;7.35;100.00;97886.11;100680;1335;25228;-34
2022/09/28 06:20:25;;;;;;;5.30;4.70;;;;;;;7.40;100.00;97881.55;100871;1337;23058;-34
2022/09/28 06:22:52;;;;;;;1.60;1.50;;;;;;;7.52;100.00;97876.94;100934;1331;22501;-38
2022/09/28 06:25:17;;;;;;;4.90;4.40;;;;;;;7.59;100.00;97881.33;100784;1337;22744;-37
2022/09/28 06:27:48;;;;;;;4.70;3.80;;;;;;;7.70;100.00;97878.80;100800;1333;23092;-36
2022/09/28 06:30:15;;;;;;;5.90;4.40;;;;;;;7.76;100.00;97870.13;100710;1339;23215;-35
2022/09/28 06:32:41;;;;;;;5.20;4.60;;;;;;;7.85;100.00;97866.99;100783;1332;23004;-33
2022/09/28 06:35:08;;;;;;;4.30;3.90;;;;;;;7.90;100.00;97862.13;100909;1334;22506;-37
2022/09/28 06:37:34;;;;;;;5.50;3.90;;;;;;;7.98;100.00;97854.38;100667;1333;22740;-36
2022/09/28 06:40:00;;;;;;;3.40;2.90;;;;;;;8.01;100.00;97841.69;100782;1339;23639;-35
2022/09/28 06:42:26;;;;;;;6.20;3.80;;;;;;;8.02;100.00;97829.84;100930;1332;22741;-34
2022/09/28 06:44:51;;;;;;;5.70;4.70;;;;;;;8.06;100.00;97826.89;100757;1337;22508;-33
2022/09/28 06:47:17;;;;;;;5.60;3.90;;;;;;;8.11;100.00;97820.05;100668;1334;24446;-34
2022/09/28 06:49:43;;;;;;;3.90;3.10;;;;;;;8.13;100.00;97816.67;100706;1339;22869;-33
2022/09/28 06:52:10;;;;;;;2.80;2.50;;;;;;;8.21;100.00;97819.16;100827;1331;22893;-35
2022/09/28 06:54:36;;;;;;;3.30;3.00;;;;;;;8.24;100.00;97814.83;100808;1339;25282;-34
2022/09/28 06:57:02;;;;;;;10.40;3.20;;;;;;;8.28;100.00;97815.75;100786;1335;25324;-34
2022/09/28 06:59:28;;;;;;;2.90;2.60;;;;;;;8.31;100.00;97813.82;100799;1338;24278;-35
2022/09/28 07:01:54;;;;;;;5.50;3.20;;;;;;;8.36;100.00;97814.83;100772;1339;22612;-37
2022/09/28 07:04:21;;;;;;;3.50;2.90;;;;;;;8.41;100.00;97811.85;100836;1338;22514;-35
2022/09/28 07:06:47;;;;;;;2.50;2.00;;;;;;;8.51;100.00;97806.61;100894;1338;22872;-37
2022/09/28 07:09:12;;;;;;;2.50;2.20;;;;;;;8.60;100.00;97799.83;100857;1338;22868;-33
2022/09/28 07:11:38;;;;;;;3.40;2.80;;;;;;;8.80;100.00;97791.45;100757;1338;23093;-36
2022/09/28 07:14:05;;;;;;;1.60;1.40;;;;;;;8.89;100.00;97785.02;100755;1327;23216;-36
2022/09/28 07:16:30;;;;;;;1.70;1.50;;;;;;;9.03;100.00;97772.43;100505;1339;526913;-33
2022/09/28 07:18:56;;;;;;;1.50;1.30;;;;;;;9.05;100.00;97757.56;100740;1339;24247;-36
2022/09/28 07:21:22;;;;;;;4.80;1.60;;;;;;;9.22;100.00;97758.48;100798;1338;22764;-34
2022/09/28 07:23:47;;;;;;;1.10;1.00;;;;;;;9.42;100.00;97759.21;100784;1331;22504;-36
2022/09/28 07:26:14;;;;;;;1.60;1.20;;;;;;;9.81;100.00;97764.50;100811;1332;22540;-38
2022/09/28 07:28:41;;;;;;;1.60;1.40;;;;;;;10.05;100.00;97753.45;100897;1331;22503;-33
2022/09/28 07:31:08;;;;;;;1.30;1.00;;;;;;;10.17;100.00;97740.85;100911;1327;24248;-38
2022/09/28 07:33:34;;;;;;;4.90;4.50;;;;;;;10.35;100.00;97733.73;100915;1337;23093;-37
2022/09/28 07:36:05;;;;;;;78.40;39.20;;;;;;;10.56;100.00;97734.73;100836;1339;22879;-35
2022/09/28 07:38:32;;;;;;;43.10;27.50;;;;;;;10.69;100.00;97721.79;100827;1332;23120;-34
2022/09/28 07:43:27;;;;;;;2.00;1.00;;;;;;;10.89;100.00;97700.08;100833;1337;24706;-37
2022/09/28 07:45:53;;;;;;;25.90;9.10;;;;;;;11.03;100.00;97693.61;100766;1340;22504;-37
2022/09/28 07:48:19;;;;;;;22.10;8.10;;;;;;;11.20;100.00;97693.27;100746;1331;23274;-35
2022/09/28 07:50:50;;;;;;;47.60;15.70;;;;;;;11.00;100.00;97695.60;100677;1339;23136;-35
2022/09/28 07:53:17;;;;;;;71.10;19.60;;;;;;;11.27;100.00;97695.21;100766;1342;24369;-34
2022/09/28 07:55:42;;;;;;;15.60;3.00;;;;;;;11.12;100.00;97698.79;100896;1333;23366;-38
2022/09/28 07:58:08;;;;;;;20.10;7.40;;;;;;;11.33;100.00;97693.13;100799;1343;23084;-35
2022/09/28 08:00:34;;;;;;;68.70;19.20;;;;;;;11.58;100.00;97695.36;100784;1325;22514;-34
2022/09/28 08:03:00;;;;;;;29.00;10.80;;;;;;;11.55;100.00;97696.48;100744;1338;23109;-38
2022/09/28 08:05:30;;;;;;;21.80;5.90;;;;;;;11.61;100.00;97696.86;100811;1331;22971;-38
2022/09/28 08:07:58;;;;;;;3.90;1.60;;;;;;;11.79;100.00;97695.04;100786;1342;22524;-38
2022/09/28 08:10:24;;;;;;;2.50;1.30;;;;;;;12.06;100.00;97696.20;100797;1326;23031;-38
2022/09/28 08:12:55;;;;;;;42.00;16.70;;;;;;;12.47;97.60;97684.02;100831;1335;22754;-38
2022/09/28 08:15:20;;;;;;;23.90;10.60;;;;;;;12.46;94.97;97684.73;100885;1339;23310;-35
2022/09/28 08:17:46;;;;;;;20.70;7.60;;;;;;;12.07;94.24;97679.48;100793;1338;24517;-35
2022/09/28 08:22:41;;;;;;;45.70;20.00;;;;;;;12.44;94.60;97678.30;100907;1337;23112;-38
2022/09/28 08:25:07;;;;;;;14.50;7.60;;;;;;;12.75;90.75;97672.19;100890;1338;22709;-35
2022/09/28 08:27:33;;;;;;;21.80;13.60;;;;;;;12.22;91.09;97676.52;100720;1331;23240;-39
2022/09/28 08:29:58;;;;;;;1.20;0.90;;;;;;;12.03;93.25;97675.77;100833;1342;24347;-35
2022/09/28 08:32:25;;;;;;;2.60;1.20;;;;;;;11.86;95.15;97674.20;100731;1337;24297;-34
2022/09/28 08:34:51;;;;;;;3.30;1.70;;;;;;;12.01;95.38;97674.67;100803;1331;24711;-37
2022/09/28 08:37:16;;;;;;;2.10;0.90;;;;;;;12.28;94.73;97675.40;100769;1342;23152;-36
2022/09/28 08:39:42;;;;;;;2.80;0.90;;;;;;;12.43;96.09;97674.45;100712;1338;23084;-37
2022/09/28 08:42:15;;;;;;;3.20;1.50;;;;;;;12.84;93.24;97667.00;100790;1337;24436;-34
2022/09/28 08:44:42;;;;;;;2.70;1.40;;;;;;;12.96;90.65;97669.18;100848;1342;22477;-37
2022/09/28 08:48:42;;;;;;;3.20;1.40;;;;;;;13.19;89.43;97664.22;100772;1337;23084;-34
2022/09/28 08:49:59;;;;;;;5.50;4.60;;;;;;;13.55;89.28;97664.39;100857;1331;22764;-37
2022/09/28 08:52:27;;;;;;;2.90;1.30;;;;;;;13.75;87.33;97665.88;100824;1331;22871;-36
2022/09/28 08:54:55;;;;;;;0.70;0.50;;;;;;;13.63;86.20;97659.54;100697;1331;22745;-36
2022/09/28 08:57:24;;;;;;;1.30;1.20;;;;;;;13.99;83.40;97663.23;100939;1342;22618;-36
2022/09/28 08:59:50;;;;;;;;;;;;;;;14.04;82.80;97660.08;100778;1341;24347;-36
2022/09/28 09:02:24;;;;;;;0.80;0.30;;;;;;;14.30;83.41;97659.02;100910;1337;22735;-36
2022/09/28 09:04:51;;;;;;;1.00;0.60;;;;;;;14.50;81.97;97654.75;100752;1334;22820;-36
2022/09/28 09:07:24;;;;;;;1.00;0.50;;;;;;;14.51;81.43;97649.00;100786;1331;23110;-36
2022/09/28 09:09:57;;;;;;;1.60;1.00;;;;;;;14.95;77.84;97647.63;100791;1334;25480;-38
2022/09/28 09:12:31;;;;;;;1.60;0.90;;;;;;;14.95;74.03;97649.59;100765;1339;24281;-34
2022/09/28 09:15:02;;;;;;;3.10;0.80;;;;;;;14.98;73.38;97650.52;100797;1334;22887;-35
2022/09/28 09:17:37;;;;;;;1.40;0.90;;;;;;;15.26;72.95;97652.23;100865;1342;24491;-37
2022/09/28 09:20:07;;;;;;;1.80;0.70;;;;;;;15.06;71.79;97656.02;100860;1342;23088;-37
2022/09/28 09:22:39;;;;;;;1.20;0.70;;;;;;;14.89;71.72;97656.16;100753;1337;23092;-35
2022/09/28 09:25:09;;;;;;;2.00;1.20;;;;;;;14.55;73.18;97653.40;100792;1342;22486;-37
2022/09/28 09:27:43;;;;;;;2.00;0.90;;;;;;;14.68;73.40;97654.91;100826;1339;23016;-37
2022/09/28 09:30:11;;;;;;;1.90;1.40;;;;;;;14.69;73.22;97656.29;100762;1331;22463;-35
2022/09/28 09:33:01;;;;;;;1.60;0.90;;;;;;;14.53;71.48;97662.64;100776;1338;22709;-36
2022/09/28 09:35:37;;;;;;;3.60;1.70;;;;;;;14.23;71.53;97664.21;100847;1340;22881;-36
2022/09/28 09:38:12;;;;;;;2.60;1.80;;;;;;;14.06;72.60;97656.69;100837;1338;25272;-33
2022/09/28 09:40:47;;;;;;;1.00;0.60;;;;;;;14.00;74.56;97657.15;100872;1342;22510;-38
2022/09/28 09:43:20;;;;;;;2.20;0.80;;;;;;;14.20;74.20;97653.79;100815;1337;25701;-33
2022/09/28 09:45:53;;;;;;;0.90;0.60;;;;;;;14.65;73.07;97651.35;100786;1342;25310;-38
2022/09/28 09:48:20;;;;;;;2.40;0.70;;;;;;;14.91;71.38;97653.80;100942;1342;26950;-36
2022/09/28 09:50:49;;;;;;;0.40;0.40;;;;;;;14.91;71.77;97652.50;100800;1334;23233;-36
2022/09/28 09:53:18;;;;;;;2.70;0.80;;;;;;;15.21;71.56;97647.56;100816;1342;23127;-35
2022/09/28 09:55:45;;;;;;;1.80;0.70;;;;;;;15.34;69.90;97644.23;100743;1342;23313;-33
2022/09/28 09:58:17;;;;;;;7.20;0.70;;;;;;;15.25;69.26;97646.81;100814;1337;23103;-35
2022/09/28 10:00:44;;;;;;;10.80;1.60;;;;;;;14.97;69.21;97646.56;100757;1335;24791;-36
2022/09/28 10:03:19;;;;;;;2.30;0.60;;;;;;;15.09;65.81;97650.85;100846;1331;22909;-36
2022/09/28 10:05:46;;;;;;;1.80;0.80;;;;;;;14.72;65.14;97651.86;100925;1339;22514;-35
2022/09/28 10:08:14;;;;;;;1.10;0.50;;;;;;;14.72;66.74;97649.41;100773;1339;24366;-35
2022/09/28 10:10:48;;;;;;;0.60;0.40;;;;;;;14.72;64.89;97649.68;100757;1339;22518;-37
2022/09/28 10:13:13;;;;;;;;;;;;;;;14.69;65.43;97644.98;100950;1339;24384;-37
2022/09/28 10:15:39;;;;;;;1.50;0.60;;;;;;;14.96;63.50;97640.98;100760;1321;24557;-34
2022/09/28 10:18:08;;;;;;;0.90;0.60;;;;;;;14.78;65.66;97638.63;100850;1334;22974;-37
2022/09/28 10:20:36;;;;;;;2.00;0.60;;;;;;;14.85;65.16;97637.30;100847;1339;22502;-34
2022/09/28 10:23:03;;;;;;;9.10;0.70;;;;;;;14.88;66.64;97637.89;100823;1335;22874;-37
2022/09/28 10:25:32;;;;;;;2.50;0.40;;;;;;;15.08;64.03;97630.95;100719;1339;23106;-35
2022/09/28 10:27:58;;;;;;;0.70;0.50;;;;;;;15.01;63.17;97626.51;100864;1339;22664;-34
2022/09/28 10:30:27;;;;;;;0.70;0.30;;;;;;;15.00;64.17;97632.51;100769;1334;24473;-35
2022/09/28 10:32:57;;;;;;;0.80;0.40;;;;;;;15.22;64.92;97626.90;100803;1339;22846;-36
2022/09/28 10:35:25;;;;;;;4.70;0.70;;;;;;;15.35;65.20;97621.23;100908;1339;25390;-37
2022/09/28 10:37:55;;;;;;;4.10;0.70;;;;;;;15.62;64.38;97623.92;100788;1339;22859;-38
2022/09/28 10:40:28;;;;;;;1.00;0.50;;;;;;;16.13;63.87;97621.71;100900;1337;25218;-37
2022/09/28 10:43:00;;;;;;;0.80;0.50;;;;;;;16.50;61.97;97629.31;100830;1330;22499;-36
2022/09/28 10:45:26;;;;;;;3.00;0.70;;;;;;;16.56;59.21;97628.48;100802;1331;23449;-36
2022/09/28 10:47:52;;;;;;;1.30;0.40;;;;;;;16.33;59.42;97634.98;100803;1339;23213;-34
2022/09/28 10:50:20;;;;;;;0.70;0.40;;;;;;;16.34;58.66;97631.88;100721;1339;23083;-37
2022/09/28 10:52:45;;;;;;;1.00;0.50;;;;;;;16.15;57.51;97628.52;100695;1329;22741;-34
2022/09/28 10:55:18;;;;;;;4.00;0.40;;;;;;;15.79;57.90;97629.42;100807;1339;25473;-37
2022/09/28 10:57:43;;;;;;;1.80;0.30;;;;;;;15.42;59.32;97630.96;100832;1338;22745;-37
2022/09/28 11:00:30;;;;;;;0.30;0.20;;;;;;;15.27;59.10;97631.50;100740;1338;22742;-36
2022/09/28 11:02:56;;;;;;;1.00;0.20;;;;;;;15.04;59.16;97634.73;100796;1331;22864;-37
2022/09/28 11:05:26;;;;;;;0.50;0.40;;;;;;;14.86;60.23;97632.54;100787;1321;23733;-37
2022/09/28 11:07:54;;;;;;;0.20;0.20;;;;;;;14.75;60.44;97632.78;100789;1339;24241;-32
2022/09/28 11:10:24;;;;;;;0.30;0.30;;;;;;;14.54;61.40;97636.23;100785;1337;24430;-35
2022/09/28 11:12:50;;;;;;;0.10;0.10;;;;;;;14.50;62.00;97631.18;100781;1339;22536;-32
2022/09/28 11:15:18;;;;;;;1.80;0.40;;;;;;;14.46;61.13;97624.20;100800;1332;22881;-35
2022/09/28 11:17:44;;;;;;;0.70;0.30;;;;;;;14.53;63.29;97612.60;100841;1339;23188;-35
2022/09/28 11:20:16;;;;;;;0.40;0.20;;;;;;;14.95;62.01;97603.90;100765;1339;24396;-37
2022/09/28 11:22:44;;;;;;;1.00;0.40;;;;;;;14.94;60.99;97604.88;100776;1339;22499;-35
2022/09/28 11:25:15;;;;;;;2.90;0.30;;;;;;;14.87;59.93;97598.70;100921;1335;22757;-37
2022/09/28 11:27:41;;;;;;;1.40;0.30;;;;;;;14.79;61.87;97595.94;100826;1334;22741;-34
2022/09/28 11:30:22;;;;;;;1.10;0.30;;;;;;;14.87;60.89;97599.30;100740;1339;23333;-34
2022/09/28 11:32:48;;;;;;;;;;;;;;;14.82;59.49;97600.03;100674;1338;22851;-36
2022/09/28 11:35:18;;;;;;;0.40;0.20;;;;;;;14.58;61.40;97598.42;100855;1331;22758;-37